sensor_id;sensor_type;location;lat;lon;timestamp;pressure;altitude;pressure_sealevel;temperature;humidity
54512;BME280;40419;47.438;19.026;2023-03-23T00:01:16;99720.56;;;8.26;90.16
54512;BME280;40419;47.438;19.026;2023-03-23T00:03:52;99719.19;;;8.15;91.42
54512;BME280;40419;47.438;19.026;2023-03-23T00:06:19;99725.97;;;8.26;89.89
54512;BME280;40419;47.438;19.026;2023-03-23T00:08:48;99716.28;;;8.16;91.29
54512;BME280;40419;47.438;19.026;2023-03-23T00:13:42;99725.56;;;8.29;90.09
54512;BME280;40419;47.438;19.026;2023-03-23T00:16:12;99705.44;;;8.31;89.25
54512;BME280;40419;47.438;19.026;2023-03-23T00:18:58;99712.81;;;8.23;89.96
54512;BME280;40419;47.438;19.026;2023-03-23T00:21:30;99710.72;;;8.18;90.32
54512;BME280;40419;47.438;19.026;2023-03-23T00:24:18;99710.78;;;8.25;90.33
54512;BME280;40419;47.438;19.026;2023-03-23T00:26:48;99707.38;;;8.38;89.90
54512;BME280;40419;47.438;19.026;2023-03-23T00:29:21;99708.78;;;8.12;91.02
54512;BME280;40419;47.438;19.026;2023-03-23T00:31:55;99706.03;;;8.27;89.13
54512;BME280;40419;47.438;19.026;2023-03-23T00:34:24;99702.31;;;8.28;89.90
54512;BME280;40419;47.438;19.026;2023-03-23T00:36:54;99700.00;;;8.25;90.20
54512;BME280;40419;47.438;19.026;2023-03-23T00:39:32;99707.19;;;8.18;90.42
54512;BME280;40419;47.438;19.026;2023-03-23T00:42:02;99709.44;;;8.14;90.86
54512;BME280;40419;47.438;19.026;2023-03-23T00:44:32;99695.56;;;8.17;90.38
54512;BME280;40419;47.438;19.026;2023-03-23T00:47:02;99697.69;;;8.22;90.14
54512;BME280;40419;47.438;19.026;2023-03-23T00:49:30;99706.75;;;8.14;91.20
54512;BME280;40419;47.438;19.026;2023-03-23T00:51:57;99701.72;;;8.11;92.17
54512;BME280;40419;47.438;19.026;2023-03-23T00:54:24;99702.03;;;8.01;93.09
54512;BME280;40419;47.438;19.026;2023-03-23T00:56:50;99698.31;;;8.02;92.86
54512;BME280;40419;47.438;19.026;2023-03-23T00:59:16;99695.09;;;8.13;91.31
54512;BME280;40419;47.438;19.026;2023-03-23T01:01:44;99698.47;;;8.15;91.25
54512;BME280;40419;47.438;19.026;2023-03-23T01:04:13;99686.25;;;8.20;91.32
54512;BME280;40419;47.438;19.026;2023-03-23T01:06:44;99685.34;;;8.34;90.86
54512;BME280;40419;47.438;19.026;2023-03-23T01:09:14;99686.94;;;8.07;92.62
54512;BME280;40419;47.438;19.026;2023-03-23T01:11:48;99687.34;;;8.04;92.54
54512;BME280;40419;47.438;19.026;2023-03-23T01:14:15;99688.28;;;7.96;92.95
54512;BME280;40419;47.438;19.026;2023-03-23T01:16:41;99676.84;;;7.94;93.00
54512;BME280;40419;47.438;19.026;2023-03-23T01:19:07;99684.94;;;7.94;93.19
54512;BME280;40419;47.438;19.026;2023-03-23T01:21:35;99683.19;;;7.86;94.29
54512;BME280;40419;47.438;19.026;2023-03-23T01:24:01;99677.41;;;7.89;92.90
54512;BME280;40419;47.438;19.026;2023-03-23T01:26:27;99679.44;;;8.02;92.13
54512;BME280;40419;47.438;19.026;2023-03-23T01:28:53;99679.44;;;8.02;91.88
54512;BME280;40419;47.438;19.026;2023-03-23T01:31:21;99674.47;;;8.06;91.32
54512;BME280;40419;47.438;19.026;2023-03-23T01:33:51;99672.25;;;8.09;90.92
54512;BME280;40419;47.438;19.026;2023-03-23T01:36:23;99678.88;;;8.07;91.03
54512;BME280;40419;47.438;19.026;2023-03-23T01:38:52;99678.66;;;8.08;91.23
54512;BME280;40419;47.438;19.026;2023-03-23T01:41:19;99677.66;;;8.09;90.93
54512;BME280;40419;47.438;19.026;2023-03-23T01:46:39;99666.88;;;8.09;90.57
54512;BME280;40419;47.438;19.026;2023-03-23T01:51:45;99669.28;;;8.04;91.10
54512;BME280;40419;47.438;19.026;2023-03-23T01:54:14;99670.25;;;7.96;91.94
54512;BME280;40419;47.438;19.026;2023-03-23T01:56:49;99673.63;;;7.84;92.63
54512;BME280;40419;47.438;19.026;2023-03-23T01:59:19;99673.69;;;7.90;92.59
54512;BME280;40419;47.438;19.026;2023-03-23T02:02:02;99668.06;;;7.85;93.46
54512;BME280;40419;47.438;19.026;2023-03-23T02:04:30;99670.97;;;7.69;95.24
54512;BME280;40419;47.438;19.026;2023-03-23T02:06:57;99671.41;;;7.72;93.65
54512;BME280;40419;47.438;19.026;2023-03-23T02:09:27;99663.44;;;7.79;92.99
54512;BME280;40419;47.438;19.026;2023-03-23T02:11:54;99664.25;;;7.79;93.12
54512;BME280;40419;47.438;19.026;2023-03-23T02:14:21;99676.25;;;7.77;93.77
54512;BME280;40419;47.438;19.026;2023-03-23T02:16:57;99679.16;;;7.60;94.15
54512;BME280;40419;47.438;19.026;2023-03-23T02:22:56;99663.44;;;7.64;93.86
54512;BME280;40419;47.438;19.026;2023-03-23T02:35:39;99682.31;;;7.49;94.43
54512;BME280;40419;47.438;19.026;2023-03-23T02:38:08;99686.28;;;7.53;94.53
54512;BME280;40419;47.438;19.026;2023-03-23T02:40:41;99679.81;;;7.48;94.89
54512;BME280;40419;47.438;19.026;2023-03-23T02:43:12;99675.44;;;7.47;95.14
54512;BME280;40419;47.438;19.026;2023-03-23T02:45:40;99687.91;;;7.18;98.31
54512;BME280;40419;47.438;19.026;2023-03-23T02:48:07;99686.78;;;7.27;96.75
54512;BME280;40419;47.438;19.026;2023-03-23T02:50:35;99685.28;;;7.24;97.54
54512;BME280;40419;47.438;19.026;2023-03-23T02:53:06;99678.88;;;7.25;96.16
54512;BME280;40419;47.438;19.026;2023-03-23T02:55:34;99690.31;;;7.27;96.63
54512;BME280;40419;47.438;19.026;2023-03-23T02:58:06;99686.16;;;7.25;96.31
54512;BME280;40419;47.438;19.026;2023-03-23T03:00:38;99694.88;;;7.27;96.15
54512;BME280;40419;47.438;19.026;2023-03-23T03:03:05;99689.28;;;7.28;96.20
54512;BME280;40419;47.438;19.026;2023-03-23T03:05:40;99685.28;;;7.24;96.14
54512;BME280;40419;47.438;19.026;2023-03-23T03:11:03;99691.97;;;7.28;96.22
54512;BME280;40419;47.438;19.026;2023-03-23T03:14:07;99692.09;;;7.35;95.56
54512;BME280;40419;47.438;19.026;2023-03-23T03:16:47;99689.09;;;7.30;95.83
54512;BME280;40419;47.438;19.026;2023-03-23T03:19:31;99689.03;;;7.23;95.90
54512;BME280;40419;47.438;19.026;2023-03-23T03:22:01;99690.41;;;7.19;96.54
54512;BME280;40419;47.438;19.026;2023-03-23T03:24:38;99691.16;;;7.28;95.78
54512;BME280;40419;47.438;19.026;2023-03-23T03:27:12;99682.31;;;7.19;95.69
54512;BME280;40419;47.438;19.026;2023-03-23T03:29:46;99690.13;;;7.14;96.88
54512;BME280;40419;47.438;19.026;2023-03-23T03:32:22;99698.59;;;7.11;97.50
54512;BME280;40419;47.438;19.026;2023-03-23T03:34:50;99703.84;;;7.04;97.25
54512;BME280;40419;47.438;19.026;2023-03-23T03:37:18;99693.34;;;7.09;96.78
54512;BME280;40419;47.438;19.026;2023-03-23T03:39:47;99696.41;;;7.06;97.06
54512;BME280;40419;47.438;19.026;2023-03-23T03:42:15;99697.81;;;7.02;98.06
54512;BME280;40419;47.438;19.026;2023-03-23T03:44:44;99694.94;;;7.04;97.70
54512;BME280;40419;47.438;19.026;2023-03-23T03:47:15;99699.47;;;7.03;97.39
54512;BME280;40419;47.438;19.026;2023-03-23T03:49:43;99700.88;;;6.99;97.56
54512;BME280;40419;47.438;19.026;2023-03-23T03:52:13;99699.75;;;6.94;98.55
54512;BME280;40419;47.438;19.026;2023-03-23T03:54:41;99699.63;;;6.87;98.84
54512;BME280;40419;47.438;19.026;2023-03-23T03:57:09;99702.25;;;6.95;99.01
54512;BME280;40419;47.438;19.026;2023-03-23T04:00:07;99707.19;;;6.91;99.24
54512;BME280;40419;47.438;19.026;2023-03-23T04:02:43;99708.44;;;6.81;100.00
54512;BME280;40419;47.438;19.026;2023-03-23T04:05:10;99704.47;;;6.77;100.00
54512;BME280;40419;47.438;19.026;2023-03-23T04:07:42;99706.47;;;6.74;100.00
54512;BME280;40419;47.438;19.026;2023-03-23T04:10:11;99708.97;;;6.76;99.88
54512;BME280;40419;47.438;19.026;2023-03-23T04:12:43;99708.44;;;6.81;99.58
54512;BME280;40419;47.438;19.026;2023-03-23T04:15:40;99701.38;;;6.65;100.00
54512;BME280;40419;47.438;19.026;2023-03-23T04:18:05;99700.81;;;6.69;100.00
54512;BME280;40419;47.438;19.026;2023-03-23T04:20:35;99706.94;;;6.63;100.00
54512;BME280;40419;47.438;19.026;2023-03-23T04:23:03;99709.66;;;6.55;100.00
54512;BME280;40419;47.438;19.026;2023-03-23T04:25:31;99704.97;;;6.57;100.00
54512;BME280;40419;47.438;19.026;2023-03-23T04:27:59;99711.44;;;6.63;100.00
54512;BME280;40419;47.438;19.026;2023-03-23T04:30:31;99708.66;;;6.56;100.00
54512;BME280;40419;47.438;19.026;2023-03-23T04:33:03;99712.19;;;6.56;100.00
54512;BME280;40419;47.438;19.026;2023-03-23T04:35:31;99712.44;;;6.47;100.00
54512;BME280;40419;47.438;19.026;2023-03-23T04:38:09;99711.00;;;6.59;100.00
54512;BME280;40419;47.438;19.026;2023-03-23T04:40:39;99714.75;;;6.50;100.00
54512;BME280;40419;47.438;19.026;2023-03-23T04:43:21;99716.31;;;6.44;100.00
54512;BME280;40419;47.438;19.026;2023-03-23T04:46:09;99720.50;;;6.47;100.00
54512;BME280;40419;47.438;19.026;2023-03-23T04:48:36;99717.28;;;6.51;100.00
54512;BME280;40419;47.438;19.026;2023-03-23T04:51:13;99717.09;;;6.53;100.00
54512;BME280;40419;47.438;19.026;2023-03-23T04:53:41;99712.66;;;6.60;100.00
54512;BME280;40419;47.438;19.026;2023-03-23T04:56:10;99712.34;;;6.78;100.00
54512;BME280;40419;47.438;19.026;2023-03-23T04:58:42;99715.47;;;6.67;100.00
54512;BME280;40419;47.438;19.026;2023-03-23T05:01:34;99711.81;;;6.60;100.00
54512;BME280;40419;47.438;19.026;2023-03-23T05:04:16;99715.63;;;6.65;100.00
54512;BME280;40419;47.438;19.026;2023-03-23T05:06:44;99706.84;;;6.71;100.00
54512;BME280;40419;47.438;19.026;2023-03-23T05:09:17;99707.22;;;6.68;100.00
54512;BME280;40419;47.438;19.026;2023-03-23T05:11:43;99716.88;;;6.78;100.00
54512;BME280;40419;47.438;19.026;2023-03-23T05:14:09;99716.84;;;6.63;100.00
54512;BME280;40419;47.438;19.026;2023-03-23T05:16:35;99714.41;;;6.91;100.00
54512;BME280;40419;47.438;19.026;2023-03-23T05:19:04;99725.34;;;6.89;100.00
54512;BME280;40419;47.438;19.026;2023-03-23T05:21:32;99731.22;;;6.93;100.00
54512;BME280;40419;47.438;19.026;2023-03-23T05:24:00;99724.41;;;6.82;100.00
54512;BME280;40419;47.438;19.026;2023-03-23T05:26:28;99732.09;;;6.85;100.00
54512;BME280;40419;47.438;19.026;2023-03-23T05:28:58;99731.41;;;7.06;100.00
54512;BME280;40419;47.438;19.026;2023-03-23T05:31:37;99723.88;;;7.02;100.00
54512;BME280;40419;47.438;19.026;2023-03-23T05:34:03;99732.66;;;7.19;100.00
54512;BME280;40419;47.438;19.026;2023-03-23T05:36:35;99719.75;;;7.29;100.00
54512;BME280;40419;47.438;19.026;2023-03-23T05:39:11;99727.66;;;7.60;100.00
54512;BME280;40419;47.438;19.026;2023-03-23T05:42:14;99733.66;;;7.77;98.10
54512;BME280;40419;47.438;19.026;2023-03-23T05:44:49;99715.06;;;7.97;96.59
54512;BME280;40419;47.438;19.026;2023-03-23T05:47:20;99717.44;;;8.07;96.51
54512;BME280;40419;47.438;19.026;2023-03-23T05:49:52;99714.75;;;8.07;96.60
54512;BME280;40419;47.438;19.026;2023-03-23T05:52:20;99709.50;;;8.21;94.17
54512;BME280;40419;47.438;19.026;2023-03-23T05:54:46;99707.75;;;8.49;93.35
54512;BME280;40419;47.438;19.026;2023-03-23T05:57:13;99709.25;;;8.37;93.96
54512;BME280;40419;47.438;19.026;2023-03-23T05:59:47;99719.19;;;8.15;93.81
54512;BME280;40419;47.438;19.026;2023-03-23T06:02:19;99711.66;;;8.10;94.44
54512;BME280;40419;47.438;19.026;2023-03-23T06:04:45;99710.78;;;8.03;93.73
54512;BME280;40419;47.438;19.026;2023-03-23T06:07:34;99713.53;;;7.73;95.55
54512;BME280;40419;47.438;19.026;2023-03-23T06:10:08;99714.09;;;8.05;95.28
54512;BME280;40419;47.438;19.026;2023-03-23T06:12:39;99713.75;;;8.30;93.70
54512;BME280;40419;47.438;19.026;2023-03-23T06:15:26;99717.69;;;8.27;93.83
54512;BME280;40419;47.438;19.026;2023-03-23T06:18:10;99720.38;;;8.27;93.74
54512;BME280;40419;47.438;19.026;2023-03-23T06:21:03;99719.66;;;8.19;94.39
54512;BME280;40419;47.438;19.026;2023-03-23T06:23:58;99718.34;;;8.14;92.44
54512;BME280;40419;47.438;19.026;2023-03-23T06:26:37;99705.97;;;8.20;91.76
54512;BME280;40419;47.438;19.026;2023-03-23T06:29:08;99712.97;;;8.36;93.73
54512;BME280;40419;47.438;19.026;2023-03-23T06:31:45;99714.25;;;8.40;92.67
54512;BME280;40419;47.438;19.026;2023-03-23T06:34:12;99716.56;;;8.22;90.70
54512;BME280;40419;47.438;19.026;2023-03-23T06:37:17;99719.38;;;8.50;93.69
54512;BME280;40419;47.438;19.026;2023-03-23T06:40:08;99721.88;;;8.73;90.19
54512;BME280;40419;47.438;19.026;2023-03-23T06:42:39;99723.66;;;8.66;89.52
54512;BME280;40419;47.438;19.026;2023-03-23T06:45:28;99716.53;;;9.08;89.39
54512;BME280;40419;47.438;19.026;2023-03-23T06:48:32;99723.63;;;9.09;87.61
54512;BME280;40419;47.438;19.026;2023-03-23T06:51:00;99727.06;;;9.25;87.76
54512;BME280;40419;47.438;19.026;2023-03-23T06:53:31;99726.22;;;9.24;86.15
54512;BME280;40419;47.438;19.026;2023-03-23T06:55:58;99726.97;;;9.46;86.11
54512;BME280;40419;47.438;19.026;2023-03-23T06:58:26;99725.94;;;9.47;82.81
54512;BME280;40419;47.438;19.026;2023-03-23T07:00:55;99734.06;;;9.54;82.49
54512;BME280;40419;47.438;19.026;2023-03-23T07:03:30;99725.34;;;9.52;82.32
54512;BME280;40419;47.438;19.026;2023-03-23T07:06:02;99727.94;;;9.67;81.74
54512;BME280;40419;47.438;19.026;2023-03-23T07:08:35;99727.66;;;9.97;80.91
54512;BME280;40419;47.438;19.026;2023-03-23T07:11:05;99732.91;;;10.11;79.23
54512;BME280;40419;47.438;19.026;2023-03-23T07:13:32;99728.97;;;10.21;78.99
54512;BME280;40419;47.438;19.026;2023-03-23T12:27:49;99600.19;;;18.69;42.84
54512;BME280;40419;47.438;19.026;2023-03-23T12:44:07;99574.53;;;18.53;43.12
54512;BME280;40419;47.438;19.026;2023-03-23T12:46:47;99583.41;;;18.66;43.67
54512;BME280;40419;47.438;19.026;2023-03-23T12:49:29;99574.56;;;18.91;41.81
54512;BME280;40419;47.438;19.026;2023-03-23T12:57:35;99571.91;;;18.69;42.56
54512;BME280;40419;47.438;19.026;2023-03-23T13:00:17;99567.34;;;18.80;41.62
54512;BME280;40419;47.438;19.026;2023-03-23T13:03:02;99566.94;;;18.66;42.72
54512;BME280;40419;47.438;19.026;2023-03-23T13:05:58;99574.97;;;18.72;42.20
54512;BME280;40419;47.438;19.026;2023-03-23T13:08:38;99566.41;;;18.64;42.57
54512;BME280;40419;47.438;19.026;2023-03-23T13:11:17;99566.81;;;18.83;42.19
54512;BME280;40419;47.438;19.026;2023-03-23T13:13:59;99566.22;;;18.81;42.31
54512;BME280;40419;47.438;19.026;2023-03-23T13:16:46;99564.34;;;18.81;42.64
54512;BME280;40419;47.438;19.026;2023-03-23T13:22:14;99574.78;;;18.84;43.24
54512;BME280;40419;47.438;19.026;2023-03-23T13:24:52;99568.72;;;18.82;42.40
54512;BME280;40419;47.438;19.026;2023-03-23T13:27:24;99563.34;;;18.98;42.13
54512;BME280;40419;47.438;19.026;2023-03-23T13:29:56;99558.91;;;18.86;42.48
54512;BME280;40419;47.438;19.026;2023-03-23T13:32:45;99559.13;;;18.80;42.72
54512;BME280;40419;47.438;19.026;2023-03-23T13:35:13;99556.75;;;18.93;42.61
54512;BME280;40419;47.438;19.026;2023-03-23T13:37:45;99556.16;;;18.86;43.17
54512;BME280;40419;47.438;19.026;2023-03-23T13:40:29;99555.78;;;18.77;43.00
54512;BME280;40419;47.438;19.026;2023-03-23T13:42:58;99553.84;;;18.73;42.16
54512;BME280;40419;47.438;19.026;2023-03-23T13:50:53;99545.41;;;18.80;41.97
54512;BME280;40419;47.438;19.026;2023-03-23T13:53:30;99545.41;;;18.85;41.79
54512;BME280;40419;47.438;19.026;2023-03-23T13:56:20;99542.13;;;18.83;42.00
54512;BME280;40419;47.438;19.026;2023-03-23T13:58:51;99543.91;;;18.62;42.19
54512;BME280;40419;47.438;19.026;2023-03-23T14:01:34;99534.84;;;18.61;41.96
54512;BME280;40419;47.438;19.026;2023-03-23T14:04:04;99541.91;;;18.52;42.65
54512;BME280;40419;47.438;19.026;2023-03-23T14:06:34;99538.16;;;18.63;43.36
54512;BME280;40419;47.438;19.026;2023-03-23T14:09:06;99540.03;;;18.57;42.99
54512;BME280;40419;47.438;19.026;2023-03-23T14:11:46;99535.00;;;18.44;43.10
54512;BME280;40419;47.438;19.026;2023-03-23T14:14:22;99529.03;;;18.52;43.83
54512;BME280;40419;47.438;19.026;2023-03-23T14:16:54;99529.56;;;18.49;43.09
54512;BME280;40419;47.438;19.026;2023-03-23T14:19:30;99526.63;;;18.61;42.53
54512;BME280;40419;47.438;19.026;2023-03-23T14:22:02;99527.84;;;18.38;43.10
54512;BME280;40419;47.438;19.026;2023-03-23T14:24:30;99527.47;;;18.24;44.13
54512;BME280;40419;47.438;19.026;2023-03-23T14:27:13;99524.38;;;18.15;43.91
54512;BME280;40419;47.438;19.026;2023-03-23T14:29:42;99524.00;;;18.06;44.30
54512;BME280;40419;47.438;19.026;2023-03-23T14:32:21;99524.44;;;17.93;45.15
54512;BME280;40419;47.438;19.026;2023-03-23T14:34:54;99527.69;;;17.90;45.08
54512;BME280;40419;47.438;19.026;2023-03-23T14:37:22;99533.03;;;17.80;45.77
54512;BME280;40419;47.438;19.026;2023-03-23T14:39:54;99531.34;;;17.74;45.96
54512;BME280;40419;47.438;19.026;2023-03-23T14:42:33;99533.25;;;17.73;44.94
54512;BME280;40419;47.438;19.026;2023-03-23T14:45:04;99535.59;;;17.86;45.01
54512;BME280;40419;47.438;19.026;2023-03-23T14:50:00;99534.44;;;17.82;45.61
54512;BME280;40419;47.438;19.026;2023-03-23T14:52:32;99531.53;;;17.89;45.46
54512;BME280;40419;47.438;19.026;2023-03-23T14:55:14;99522.59;;;17.99;44.59
54512;BME280;40419;47.438;19.026;2023-03-23T14:57:41;99514.88;;;17.96;45.26
54512;BME280;40419;47.438;19.026;2023-03-23T15:00:15;99524.38;;;17.88;45.43
54512;BME280;40419;47.438;19.026;2023-03-23T15:02:48;99514.63;;;17.97;44.91
54512;BME280;40419;47.438;19.026;2023-03-23T15:05:34;99516.03;;;18.00;45.32
54512;BME280;40419;47.438;19.026;2023-03-23T15:08:10;99520.47;;;18.06;46.36
54512;BME280;40419;47.438;19.026;2023-03-23T15:10:37;99519.94;;;18.09;45.29
54512;BME280;40419;47.438;19.026;2023-03-23T15:13:02;99515.88;;;18.12;44.72
54512;BME280;40419;47.438;19.026;2023-03-23T15:15:31;99520.81;;;18.15;45.92
54512;BME280;40419;47.438;19.026;2023-03-23T15:17:59;99516.63;;;18.07;44.74
54512;BME280;40419;47.438;19.026;2023-03-23T15:20:31;99518.53;;;18.06;45.28
54512;BME280;40419;47.438;19.026;2023-03-23T15:23:06;99522.28;;;17.95;44.88
54512;BME280;40419;47.438;19.026;2023-03-23T15:25:37;99525.97;;;17.84;46.83
54512;BME280;40419;47.438;19.026;2023-03-23T15:28:41;99525.94;;;17.79;45.65
54512;BME280;40419;47.438;19.026;2023-03-23T15:31:08;99527.22;;;17.71;46.05
54512;BME280;40419;47.438;19.026;2023-03-23T15:33:37;99522.53;;;17.66;47.01
54512;BME280;40419;47.438;19.026;2023-03-23T15:36:14;99522.31;;;17.73;46.30
54512;BME280;40419;47.438;19.026;2023-03-23T15:38:44;99523.19;;;17.51;47.39
54512;BME280;40419;47.438;19.026;2023-03-23T15:41:27;99524.72;;;17.42;47.58
54512;BME280;40419;47.438;19.026;2023-03-23T15:43:56;99513.53;;;17.44;47.37
54512;BME280;40419;47.438;19.026;2023-03-23T15:46:26;99520.06;;;17.43;47.20
54512;BME280;40419;47.438;19.026;2023-03-23T15:51:27;99524.13;;;17.18;48.95
54512;BME280;40419;47.438;19.026;2023-03-23T15:53:58;99524.13;;;17.18;48.47
54512;BME280;40419;47.438;19.026;2023-03-23T15:56:26;99518.75;;;17.23;47.66
54512;BME280;40419;47.438;19.026;2023-03-23T15:58:54;99528.66;;;17.07;48.19
54512;BME280;40419;47.438;19.026;2023-03-23T16:01:23;99533.19;;;16.96;49.62
54512;BME280;40419;47.438;19.026;2023-03-23T16:06:26;99525.47;;;16.93;48.60
54512;BME280;40419;47.438;19.026;2023-03-23T16:08:54;99529.44;;;16.86;48.11
54512;BME280;40419;47.438;19.026;2023-03-23T16:11:19;99535.72;;;16.86;48.31
54512;BME280;40419;47.438;19.026;2023-03-23T16:13:45;99519.56;;;16.62;49.13
54512;BME280;40419;47.438;19.026;2023-03-23T16:16:19;99525.94;;;16.51;49.79
54512;BME280;40419;47.438;19.026;2023-03-23T16:18:50;99531.09;;;16.47;49.72
54512;BME280;40419;47.438;19.026;2023-03-23T16:21:23;99527.84;;;16.51;49.35
54512;BME280;40419;47.438;19.026;2023-03-23T16:23:55;99529.75;;;16.33;50.87
54512;BME280;40419;47.438;19.026;2023-03-23T16:26:20;99521.66;;;16.21;51.19
54512;BME280;40419;47.438;19.026;2023-03-23T16:28:46;99520.59;;;16.05;52.87
54512;BME280;40419;47.438;19.026;2023-03-23T16:31:16;99519.28;;;16.08;51.90
54512;BME280;40419;47.438;19.026;2023-03-23T16:33:41;99524.63;;;15.86;53.56
54512;BME280;40419;47.438;19.026;2023-03-23T16:36:13;99520.59;;;15.76;55.21
54512;BME280;40419;47.438;19.026;2023-03-23T16:38:42;99532.06;;;15.62;54.71
54512;BME280;40419;47.438;19.026;2023-03-23T16:41:08;99534.88;;;15.67;54.46
54512;BME280;40419;47.438;19.026;2023-03-23T16:43:34;99533.41;;;15.47;55.72
54512;BME280;40419;47.438;19.026;2023-03-23T16:46:00;99546.91;;;15.25;57.23
54512;BME280;40419;47.438;19.026;2023-03-23T16:48:25;99537.06;;;15.12;56.81
54512;BME280;40419;47.438;19.026;2023-03-23T16:50:53;99534.84;;;15.09;56.75
54512;BME280;40419;47.438;19.026;2023-03-23T16:53:21;99539.59;;;15.02;57.24
54512;BME280;40419;47.438;19.026;2023-03-23T16:55:50;99537.97;;;14.89;57.87
54512;BME280;40419;47.438;19.026;2023-03-23T16:58:16;99530.97;;;14.81;58.47
54512;BME280;40419;47.438;19.026;2023-03-23T17:00:43;99533.34;;;14.78;58.83
54512;BME280;40419;47.438;19.026;2023-03-23T17:03:11;99544.25;;;14.66;60.53
54512;BME280;40419;47.438;19.026;2023-03-23T17:05:37;99541.50;;;14.54;61.01
54512;BME280;40419;47.438;19.026;2023-03-23T17:08:03;99542.31;;;14.43;61.24
54512;BME280;40419;47.438;19.026;2023-03-23T17:10:32;99545.50;;;14.40;60.90
54512;BME280;40419;47.438;19.026;2023-03-23T17:12:58;99544.78;;;14.32;61.17
54512;BME280;40419;47.438;19.026;2023-03-23T17:15:23;99545.84;;;14.20;61.77
54512;BME280;40419;47.438;19.026;2023-03-23T17:17:52;99552.13;;;14.20;62.40
54512;BME280;40419;47.438;19.026;2023-03-23T17:20:19;99545.63;;;14.21;62.04
54512;BME280;40419;47.438;19.026;2023-03-23T17:22:47;99554.50;;;14.16;62.33
54512;BME280;40419;47.438;19.026;2023-03-23T17:25:15;99559.75;;;13.88;64.63
54512;BME280;40419;47.438;19.026;2023-03-23T17:27:40;99555.94;;;13.89;65.82
54512;BME280;40419;47.438;19.026;2023-03-23T17:30:10;99553.13;;;13.95;64.27
54512;BME280;40419;47.438;19.026;2023-03-23T17:32:35;99553.13;;;13.95;65.36
54512;BME280;40419;47.438;19.026;2023-03-23T17:35:04;99557.84;;;13.88;65.22
54512;BME280;40419;47.438;19.026;2023-03-23T17:37:36;99579.81;;;13.75;67.18
54512;BME280;40419;47.438;19.026;2023-03-23T17:40:02;99568.75;;;13.58;68.45
54512;BME280;40419;47.438;19.026;2023-03-23T17:42:29;99574.41;;;13.56;68.96
54512;BME280;40419;47.438;19.026;2023-03-23T17:44:59;99575.56;;;13.49;70.26
54512;BME280;40419;47.438;19.026;2023-03-23T17:47:24;99579.78;;;13.44;69.66
54512;BME280;40419;47.438;19.026;2023-03-23T17:49:52;99582.59;;;13.38;71.12
54512;BME280;40419;47.438;19.026;2023-03-23T17:52:20;99571.94;;;13.36;71.54
54512;BME280;40419;47.438;19.026;2023-03-23T17:54:49;99580.69;;;13.38;70.70
54512;BME280;40419;47.438;19.026;2023-03-23T17:57:20;99582.22;;;13.34;72.16
54512;BME280;40419;47.438;19.026;2023-03-23T17:59:49;99580.38;;;13.28;71.89
54512;BME280;40419;47.438;19.026;2023-03-23T18:02:14;99587.25;;;13.30;71.12
54512;BME280;40419;47.438;19.026;2023-03-23T18:04:43;99590.78;;;13.31;71.52
54512;BME280;40419;47.438;19.026;2023-03-23T18:07:11;99600.91;;;13.24;72.14
54512;BME280;40419;47.438;19.026;2023-03-23T18:09:44;99586.03;;;13.26;71.89
54512;BME280;40419;47.438;19.026;2023-03-23T18:12:12;99594.72;;;13.17;72.35
54512;BME280;40419;47.438;19.026;2023-03-23T18:14:38;99593.16;;;13.09;72.77
54512;BME280;40419;47.438;19.026;2023-03-23T18:17:06;99599.03;;;13.06;72.20
54512;BME280;40419;47.438;19.026;2023-03-23T18:19:32;99597.81;;;13.02;72.64
54512;BME280;40419;47.438;19.026;2023-03-23T18:21:58;99608.84;;;13.07;71.31
54512;BME280;40419;47.438;19.026;2023-03-23T18:24:23;99609.50;;;13.02;72.93
54512;BME280;40419;47.438;19.026;2023-03-23T18:26:49;99602.13;;;12.91;73.12
54512;BME280;40419;47.438;19.026;2023-03-23T18:29:17;99609.75;;;13.01;71.88
54512;BME280;40419;47.438;19.026;2023-03-23T18:31:45;99614.72;;;13.04;70.97
54512;BME280;40419;47.438;19.026;2023-03-23T18:34:11;99604.16;;;13.14;70.14
54512;BME280;40419;47.438;19.026;2023-03-23T18:36:43;99611.19;;;13.03;71.29
54512;BME280;40419;47.438;19.026;2023-03-23T18:39:09;99611.84;;;12.99;71.41
54512;BME280;40419;47.438;19.026;2023-03-23T18:41:36;99604.59;;;12.92;71.49
54512;BME280;40419;47.438;19.026;2023-03-23T18:44:04;99614.19;;;12.95;71.10
54512;BME280;40419;47.438;19.026;2023-03-23T18:46:30;99603.63;;;13.05;69.91
54512;BME280;40419;47.438;19.026;2023-03-23T18:48:55;99611.31;;;13.08;68.90
54512;BME280;40419;47.438;19.026;2023-03-23T18:51:21;99608.25;;;13.05;69.16
54512;BME280;40419;47.438;19.026;2023-03-23T18:53:49;99606.88;;;12.96;69.76
54512;BME280;40419;47.438;19.026;2023-03-23T18:56:19;99602.56;;;12.88;70.59
54512;BME280;40419;47.438;19.026;2023-03-23T18:58:45;99608.03;;;12.81;71.22
54512;BME280;40419;47.438;19.026;2023-03-23T19:01:15;99608.56;;;12.71;72.06
54512;BME280;40419;47.438;19.026;2023-03-23T19:03:46;99600.25;;;12.66;72.16
54512;BME280;40419;47.438;19.026;2023-03-23T19:06:20;99602.81;;;12.61;72.37
54512;BME280;40419;47.438;19.026;2023-03-23T19:08:50;99601.75;;;12.62;71.63
54512;BME280;40419;47.438;19.026;2023-03-23T19:11:22;99608.25;;;12.61;71.35
54512;BME280;40419;47.438;19.026;2023-03-23T19:13:52;99617.47;;;12.79;69.96
54512;BME280;40419;47.438;19.026;2023-03-23T19:16:21;99609.41;;;12.90;69.94
54512;BME280;40419;47.438;19.026;2023-03-23T19:18:46;99604.50;;;12.81;69.31
54512;BME280;40419;47.438;19.026;2023-03-23T19:21:14;99602.38;;;12.83;69.66
54512;BME280;40419;47.438;19.026;2023-03-23T19:23:43;99606.31;;;12.68;70.60
54512;BME280;40419;47.438;19.026;2023-03-23T19:26:18;99595.56;;;12.55;71.61
54512;BME280;40419;47.438;19.026;2023-03-23T19:28:45;99589.72;;;12.51;71.78
54512;BME280;40419;47.438;19.026;2023-03-23T19:31:13;99587.72;;;12.40;73.04